Shady Point, Oklahoma
Current Conditions -  °F | °C
As of 12:55 AM on Monday 24 Nov 2014 (Local Time) from KRKR Reporting Station
Overcast Overcast  
Wind Chill: 39°   Ceiling: 2100
Heat Index: 46°   Visibility: 10mi
Dew Point: 37°   Wind: 18mph
Humidity: 71%   Direction: 310°NW
Pressure: 29.7"   Gusts: 24mph
Location:  35.13°N, 94.66°W
Report Text: KRKR 240655Z AUTO 31016G21KT 10SM BKN021 OVC030 08/03 A2970 RMK AO2 T00800030
Loading
Personal Weather Stations






























Interactive Weather Map New forecast layout! Learn more

10-Day Weather Forecast

Advertisements
Track Severe Weather on mobile